Time;durP1;ratioP1;P1;durP2;ratioP2;P2;SDS_P1;SDS_P2;PMS_P1;PMS_P2;Temp;Humidity;BMP_temperature;BMP_pressure;BME280_temperature;BME280_humidity;BME280_pressure;Samples;Min_cycle;Max_cycle;Signal;HPM_P1;HPM_P2
2024/01/04 00:01:38;;;;;;;3.15;1.05;;;;;;;5.20;100.00;99201.94;5032397;28;20064;-80
2024/01/04 00:04:05;;;;;;;2.70;0.63;;;;;;;5.18;100.00;99193.22;5043876;28;20071;-80
2024/01/04 00:06:33;;;;;;;1.77;0.70;;;;;;;5.16;100.00;99194.97;5045533;28;20431;-80
2024/01/04 00:09:00;;;;;;;2.17;0.60;;;;;;;5.16;100.00;99205.41;5031560;28;20057;-80
2024/01/04 00:11:28;;;;;;;1.42;0.70;;;;;;;5.14;100.00;99207.16;5047817;28;20036;-80
2024/01/04 00:13:55;;;;;;;4.68;1.10;;;;;;;5.13;100.00;99219.34;5046062;28;21043;-80
2024/01/04 00:16:22;;;;;;;2.95;0.70;;;;;;;5.13;100.00;99216.72;5030113;28;20057;-80
2024/01/04 00:18:50;;;;;;;5.40;1.08;;;;;;;5.11;100.00;99228.06;5017313;28;20099;-80
2024/01/04 00:21:18;;;;;;;9.38;1.52;;;;;;;5.12;100.00;99229.78;5045296;28;20072;-80
2024/01/04 00:23:45;;;;;;;4.82;1.20;;;;;;;5.10;100.00;99240.22;5045692;28;20044;-80
2024/01/04 00:26:13;;;;;;;5.25;1.08;;;;;;;5.09;100.00;99235.88;5048517;28;20049;-80
2024/01/04 00:28:42;;;;;;;4.25;0.90;;;;;;;5.04;100.00;99235.00;5038666;28;20834;-80
2024/01/04 00:31:10;;;;;;;1.15;0.80;;;;;;;5.03;100.00;99243.72;5039601;28;20041;-80
2024/01/04 00:33:39;;;;;;;1.52;0.80;;;;;;;4.99;100.00;99253.31;4988000;28;20061;-79
2024/01/04 00:36:09;;;;;;;2.30;0.70;;;;;;;4.99;100.00;99252.41;5062581;28;20065;-79
2024/01/04 00:38:38;;;;;;;4.45;1.02;;;;;;;5.00;100.00;99262.84;5044299;28;20059;-80
2024/01/04 00:41:06;;;;;;;0.68;0.55;;;;;;;4.99;100.00;99265.47;5047511;28;20048;-80
2024/01/04 00:43:33;;;;;;;1.30;0.50;;;;;;;4.97;100.00;99272.41;5027681;28;20052;-80
2024/01/04 00:46:01;;;;;;;8.18;1.17;;;;;;;4.97;100.00;99278.53;5046021;28;20052;-80
2024/01/04 00:48:29;;;;;;;1.08;0.50;;;;;;;4.96;100.00;99276.78;5025852;28;20414;-81
2024/01/04 00:50:58;;;;;;;2.08;0.57;;;;;;;4.97;100.00;99286.38;5040938;28;20040;-80
2024/01/04 00:53:26;;;;;;;1.60;0.70;;;;;;;4.96;100.00;99286.34;5035272;28;20047;-80
2024/01/04 00:55:53;;;;;;;3.35;0.70;;;;;;;4.94;100.00;99294.19;5057025;28;20045;-80
2024/01/04 00:58:21;;;;;;;4.57;0.80;;;;;;;4.94;100.00;99291.56;5036467;28;20045;-79
2024/01/04 01:00:48;;;;;;;3.53;0.60;;;;;;;4.93;100.00;99302.88;5034157;28;20045;-81
2024/01/04 01:03:16;;;;;;;1.27;0.70;;;;;;;4.92;100.00;99306.38;5040877;28;20048;-80
2024/01/04 01:05:44;;;;;;;5.25;0.80;;;;;;;4.91;100.00;99309.84;5017768;28;20048;-80
2024/01/04 01:08:12;;;;;;;0.82;0.70;;;;;;;4.91;100.00;99319.41;5038157;28;20080;-80
2024/01/04 01:10:40;;;;;;;2.75;0.80;;;;;;;4.91;100.00;99322.88;5045910;28;20077;-79
2024/01/04 01:13:08;;;;;;;2.20;0.63;;;;;;;4.90;100.00;99334.22;5030255;28;20040;-79
2024/01/04 01:15:35;;;;;;;2.05;0.80;;;;;;;4.88;100.00;99339.41;5026362;28;20053;-79
2024/01/04 01:18:03;;;;;;;6.35;1.17;;;;;;;4.85;100.00;99344.63;5048996;28;20050;-80
2024/01/04 01:20:31;;;;;;;2.53;1.15;;;;;;;4.82;100.00;99348.97;5014489;28;20040;-79
2024/01/04 01:22:58;;;;;;;1.45;0.70;;;;;;;4.77;100.00;99350.72;5058423;28;20049;-79
2024/01/04 01:25:26;;;;;;;2.72;1.10;;;;;;;4.74;100.00;99362.00;5028276;28;20497;-78
2024/01/04 01:27:53;;;;;;;2.05;0.70;;;;;;;4.72;100.00;99362.88;5027616;28;20409;-79
2024/01/04 01:30:21;;;;;;;4.88;0.80;;;;;;;4.68;100.00;99360.22;5033899;28;20674;-79
2024/01/04 01:32:49;;;;;;;1.45;0.65;;;;;;;4.65;100.00;99369.78;5045072;28;20378;-80
2024/01/04 01:35:18;;;;;;;0.80;0.70;;;;;;;4.62;100.00;99382.84;5037896;28;20494;-79
2024/01/04 01:37:45;;;;;;;2.00;0.60;;;;;;;4.59;100.00;99388.91;4999634;28;20061;-79
2024/01/04 01:40:13;;;;;;;2.42;0.60;;;;;;;4.56;100.00;99396.72;5026712;28;20056;-80
2024/01/04 01:42:46;;;;;;;1.25;0.60;;;;;;;4.50;100.00;99396.72;5024155;28;20052;-79
2024/01/04 01:45:13;;;;;;;0.77;0.55;;;;;;;4.44;100.00;99408.00;5044170;28;20053;-80
2024/01/04 01:47:41;;;;;;;2.65;0.70;;;;;;;4.39;100.00;99408.84;5047469;28;20041;-79
2024/01/04 01:50:09;;;;;;;3.50;0.60;;;;;;;4.35;100.00;99409.66;5029819;28;20053;-78
2024/01/04 01:52:37;;;;;;;1.20;0.70;;;;;;;4.33;100.00;99417.50;5021554;28;20405;-79
2024/01/04 01:55:06;;;;;;;2.22;0.63;;;;;;;4.30;100.00;99415.72;5030258;28;20435;-79
2024/01/04 01:57:33;;;;;;;0.80;0.55;;;;;;;4.27;100.00;99415.72;5041091;28;20391;-79
2024/01/04 02:00:01;;;;;;;3.30;0.60;;;;;;;4.23;100.00;99423.50;5044374;28;20052;-79
2024/01/04 02:02:39;;;;;;;3.13;0.75;;;;;;;4.21;100.00;99420.88;5031707;28;20049;-78
2024/01/04 02:05:07;;;;;;;2.60;0.50;;;;;;;4.18;100.00;99431.31;5035660;28;20056;-80
2024/01/04 02:07:34;;;;;;;0.88;0.50;;;;;;;4.17;100.00;99439.97;5017696;28;20417;-80
2024/01/04 02:10:02;;;;;;;1.55;0.60;;;;;;;4.18;100.00;99441.75;5044335;28;20052;-79
2024/01/04 02:12:31;;;;;;;1.10;0.60;;;;;;;4.21;100.00;99451.31;5045565;28;20045;-80
2024/01/04 02:14:59;;;;;;;0.80;0.80;;;;;;;4.22;100.00;99443.50;5025174;28;20049;-80
2024/01/04 02:17:28;;;;;;;1.25;0.70;;;;;;;4.23;100.00;99460.00;5029727;28;20053;-80
2024/01/04 02:19:57;;;;;;;2.03;0.73;;;;;;;4.23;100.00;99468.69;5029276;28;20056;-81
2024/01/04 02:22:25;;;;;;;4.55;1.30;;;;;;;4.24;100.00;99480.03;5015683;28;20297;-79
2024/01/04 02:24:52;;;;;;;1.00;0.60;;;;;;;4.25;100.00;99480.03;5031858;28;20045;-78
2024/01/04 02:27:19;;;;;;;2.80;0.68;;;;;;;4.21;100.00;99486.06;5034396;28;20060;-78
2024/01/04 02:29:47;;;;;;;3.38;1.00;;;;;;;4.17;100.00;99492.13;5055437;28;20059;-79
2024/01/04 02:32:14;;;;;;;2.05;0.68;;;;;;;4.14;100.00;99505.16;5044821;28;20049;-80
2024/01/04 02:34:42;;;;;;;3.80;0.70;;;;;;;4.10;100.00;99505.97;5047027;28;20048;-79
2024/01/04 02:37:09;;;;;;;1.92;0.60;;;;;;;4.09;100.00;99509.47;5015691;28;20045;-80
2024/01/04 02:39:36;;;;;;;4.03;0.80;;;;;;;4.06;100.00;99509.41;5031198;28;20053;-79
2024/01/04 02:42:04;;;;;;;4.35;0.68;;;;;;;4.03;100.00;99517.25;5038598;28;20053;-79
2024/01/04 02:44:32;;;;;;;3.03;0.70;;;;;;;3.98;100.00;99522.41;5044625;28;20037;-79
2024/01/04 02:47:00;;;;;;;2.17;0.70;;;;;;;3.97;100.00;99524.97;5053466;28;20064;-80
2024/01/04 02:49:29;;;;;;;2.30;0.70;;;;;;;3.95;100.00;99526.69;5042738;28;20041;-79
2024/01/04 02:51:57;;;;;;;5.88;0.93;;;;;;;3.96;100.00;99531.06;5054194;28;20040;-80
2024/01/04 02:54:24;;;;;;;2.70;0.70;;;;;;;3.96;100.00;99537.16;5042217;28;20072;-78
2024/01/04 02:56:51;;;;;;;1.42;0.60;;;;;;;3.97;100.00;99543.22;5033295;28;20056;-79
2024/01/04 02:59:19;;;;;;;1.05;0.50;;;;;;;3.96;100.00;99549.31;5038730;28;20045;-79
2024/01/04 03:01:48;;;;;;;3.92;0.75;;;;;;;3.95;100.00;99552.78;5040143;28;20052;-79
2024/01/04 03:04:16;;;;;;;2.45;0.85;;;;;;;3.93;100.00;99560.56;5035421;28;20660;-79
2024/01/04 03:06:43;;;;;;;2.53;0.80;;;;;;;3.92;100.00;99557.97;5050928;28;20049;-79
2024/01/04 03:09:11;;;;;;;2.33;0.90;;;;;;;3.89;100.00;99562.31;5020055;28;20053;-80
2024/01/04 03:11:39;;;;;;;3.10;0.90;;;;;;;3.89;100.00;99571.81;5039547;28;20041;-79
2024/01/04 03:14:06;;;;;;;1.08;0.60;;;;;;;3.92;100.00;99577.09;5025747;28;20053;-79
2024/01/04 03:16:34;;;;;;;0.77;0.60;;;;;;;3.92;100.00;99581.44;5047303;28;20045;-80
2024/01/04 03:19:01;;;;;;;0.70;0.60;;;;;;;3.89;100.00;99590.97;5042172;28;20053;-80
2024/01/04 03:21:29;;;;;;;0.50;0.47;;;;;;;3.90;100.00;99584.88;5056632;28;20045;-79
2024/01/04 03:23:57;;;;;;;1.13;1.00;;;;;;;3.90;100.00;99584.88;5029106;28;20562;-80
2024/01/04 03:26:24;;;;;;;2.60;0.73;;;;;;;3.88;100.00;99588.34;5034152;28;20045;-80
2024/01/04 03:28:51;;;;;;;3.97;1.20;;;;;;;3.86;100.00;99593.53;5030559;28;20053;-80
2024/01/04 03:31:19;;;;;;;7.50;1.10;;;;;;;3.89;100.00;99590.06;5041346;28;20111;-80
2024/01/04 03:33:49;;;;;;;1.52;0.82;;;;;;;3.87;100.00;99592.66;5041115;28;20041;-80
2024/01/04 03:36:17;;;;;;;3.60;0.80;;;;;;;3.87;100.00;99597.88;5044143;28;20675;-80
2024/01/04 03:38:45;;;;;;;2.42;0.90;;;;;;;3.85;100.00;99607.41;5037196;28;20056;-78
2024/01/04 03:41:13;;;;;;;2.70;0.57;;;;;;;3.82;100.00;99606.50;5006150;28;20045;-80
2024/01/04 03:43:40;;;;;;;0.80;0.52;;;;;;;3.78;100.00;99616.03;5023692;28;20056;-79
2024/01/04 03:46:11;;;;;;;1.00;0.75;;;;;;;3.77;100.00;99619.50;5018709;28;20067;-80
2024/01/04 03:48:41;;;;;;;1.40;0.80;;;;;;;3.74;100.00;99622.06;5048276;28;20413;-79
2024/01/04 03:51:11;;;;;;;4.05;0.80;;;;;;;3.73;100.00;99637.69;5028836;28;20049;-80
2024/01/04 03:53:39;;;;;;;2.77;0.70;;;;;;;3.68;100.00;99640.22;5048852;28;20044;-80
2024/01/04 03:56:06;;;;;;;2.15;0.80;;;;;;;3.67;100.00;99643.72;5027147;28;20057;-80
2024/01/04 03:58:35;;;;;;;1.95;0.93;;;;;;;3.66;100.00;99645.41;5032464;28;20057;-80
2024/01/04 04:01:02;;;;;;;3.75;0.73;;;;;;;3.65;100.00;99653.25;5047144;28;20520;-81
2024/01/04 04:03:30;;;;;;;3.10;0.85;;;;;;;3.64;100.00;99652.34;5047926;28;20056;-80
2024/01/04 04:05:57;;;;;;;3.28;1.15;;;;;;;3.66;100.00;99660.19;5040793;28;20080;-80
2024/01/04 04:08:25;;;;;;;5.82;2.45;;;;;;;3.66;100.00;99662.78;5039648;28;20056;-80
2024/01/04 04:10:52;;;;;;;2.75;1.10;;;;;;;3.67;100.00;99673.22;5020003;28;20041;-80
2024/01/04 04:13:20;;;;;;;2.40;0.73;;;;;;;3.65;100.00;99674.94;5047866;28;20041;-80
2024/01/04 04:15:47;;;;;;;3.78;0.90;;;;;;;3.66;100.00;99684.50;5049430;28;20037;-80
2024/01/04 04:18:15;;;;;;;4.13;1.13;;;;;;;3.65;100.00;99689.72;5030742;28;20046;-79
2024/01/04 04:20:42;;;;;;;4.82;0.75;;;;;;;3.66;100.00;99692.31;5049106;28;20037;-79
2024/01/04 04:23:10;;;;;;;1.08;0.80;;;;;;;3.66;100.00;99694.91;5045731;28;20033;-79
2024/01/04 04:25:38;;;;;;;2.80;0.60;;;;;;;3.65;100.00;99710.56;5042380;28;20041;-79
2024/01/04 04:28:06;;;;;;;1.85;1.02;;;;;;;3.63;100.00;99714.84;5001947;28;20057;-79
2024/01/04 04:30:34;;;;;;;0.88;0.60;;;;;;;3.61;100.00;99714.84;5031263;28;20059;-79
2024/01/04 04:33:01;;;;;;;1.75;0.55;;;;;;;3.60;100.00;99718.28;5028736;28;20053;-80
2024/01/04 04:35:29;;;;;;;0.65;0.57;;;;;;;3.60;100.00;99733.06;5024019;28;20390;-79
2024/01/04 04:37:57;;;;;;;1.35;0.50;;;;;;;3.59;100.00;99729.59;5038225;28;20049;-80
2024/01/04 04:40:24;;;;;;;2.20;0.70;;;;;;;3.57;100.00;99733.88;5046617;28;20053;-79
2024/01/04 04:42:52;;;;;;;2.80;1.05;;;;;;;3.56;100.00;99742.56;5017013;28;20056;-79
2024/01/04 04:45:19;;;;;;;4.50;0.70;;;;;;;3.55;100.00;99746.00;5028683;28;20056;-79
2024/01/04 04:47:47;;;;;;;5.13;0.90;;;;;;;3.54;100.00;99743.41;5077510;28;20060;-80
2024/01/04 04:50:15;;;;;;;0.75;0.75;;;;;;;3.53;100.00;99752.91;5040996;28;20045;-80
2024/01/04 04:52:43;;;;;;;1.10;0.70;;;;;;;3.51;100.00;99758.09;5036946;28;20090;-80
2024/01/04 04:55:10;;;;;;;2.00;0.70;;;;;;;3.49;100.00;99761.56;5050820;28;20053;-80
2024/01/04 04:57:38;;;;;;;4.90;1.00;;;;;;;3.46;100.00;99767.59;5013167;28;20048;-79
2024/01/04 05:00:06;;;;;;;0.90;0.75;;;;;;;3.49;100.00;99772.84;5044641;28;20105;-79
2024/01/04 05:02:34;;;;;;;1.23;0.70;;;;;;;3.49;100.00;99777.19;5016116;28;20079;-79
2024/01/04 05:05:01;;;;;;;1.85;0.70;;;;;;;3.48;100.00;99784.13;5021373;28;20541;-79
2024/01/04 05:07:29;;;;;;;2.63;0.65;;;;;;;3.46;100.00;99788.44;5037246;28;20049;-79
2024/01/04 05:09:56;;;;;;;1.13;0.65;;;;;;;3.46;100.00;99795.34;5042539;28;20049;-79
2024/01/04 05:12:24;;;;;;;1.02;0.50;;;;;;;3.42;100.00;99797.06;5013516;28;20045;-80
2024/01/04 05:14:52;;;;;;;2.38;0.57;;;;;;;3.40;100.00;99803.94;5046264;28;20045;-79
2024/01/04 05:17:19;;;;;;;1.48;0.90;;;;;;;3.37;100.00;99801.31;5046129;28;20045;-80
2024/01/04 05:19:47;;;;;;;0.50;0.50;;;;;;;3.35;100.00;99815.19;5046225;28;20044;-80
2024/01/04 05:22:16;;;;;;;1.55;0.50;;;;;;;3.33;100.00;99812.53;5045597;28;20040;-79
2024/01/04 05:24:43;;;;;;;1.17;0.73;;;;;;;3.33;100.00;99820.34;5040436;28;20049;-79
2024/01/04 05:27:11;;;;;;;2.40;0.75;;;;;;;3.32;100.00;99821.19;4998519;28;20057;-79
2024/01/04 05:29:38;;;;;;;1.20;0.80;;;;;;;3.31;100.00;99827.28;5040582;28;20053;-79
2024/01/04 05:32:06;;;;;;;1.85;0.80;;;;;;;3.28;100.00;99832.41;5034619;28;20498;-79
2024/01/04 05:34:33;;;;;;;1.77;0.70;;;;;;;3.27;100.00;99846.28;5042920;28;20048;-79
2024/01/04 05:37:02;;;;;;;1.17;0.80;;;;;;;3.24;100.00;99843.63;5044424;28;20048;-79
2024/01/04 05:39:30;;;;;;;2.67;0.90;;;;;;;3.22;100.00;99861.81;5038160;28;20051;-80
2024/01/04 05:41:57;;;;;;;2.78;0.68;;;;;;;3.21;100.00;99864.41;5045512;28;20041;-79
2024/01/04 05:44:24;;;;;;;2.10;1.17;;;;;;;3.21;100.00;99870.47;5013636;28;20461;-80
2024/01/04 05:46:52;;;;;;;2.03;0.70;;;;;;;3.22;100.00;99869.63;5029673;28;20425;-80
2024/01/04 05:49:19;;;;;;;2.92;0.70;;;;;;;3.21;100.00;99870.47;5036117;28;20064;-80
2024/01/04 05:51:47;;;;;;;5.75;0.85;;;;;;;3.20;100.00;99880.88;5043738;28;20075;-80
2024/01/04 05:54:15;;;;;;;3.78;0.75;;;;;;;3.17;100.00;99883.44;5030530;28;20056;-80
2024/01/04 05:56:44;;;;;;;3.33;0.68;;;;;;;3.16;100.00;99886.88;5043262;28;20450;-80
2024/01/04 05:59:11;;;;;;;2.60;0.73;;;;;;;3.14;100.00;99889.47;5005601;28;20054;-80
2024/01/04 06:01:39;;;;;;;2.38;0.80;;;;;;;3.13;100.00;99893.78;5045088;28;20449;-79
2024/01/04 06:04:06;;;;;;;0.95;0.50;;;;;;;3.13;100.00;99901.59;5013705;28;20123;-79
2024/01/04 06:06:34;;;;;;;1.02;0.55;;;;;;;3.11;100.00;99911.09;5020813;28;20057;-79
2024/01/04 06:09:03;;;;;;;2.00;0.75;;;;;;;3.11;100.00;99916.31;5048515;28;20050;-80
2024/01/04 06:11:31;;;;;;;4.68;0.70;;;;;;;3.08;100.00;99918.88;5014129;28;20502;-79
2024/01/04 06:13:58;;;;;;;1.15;0.60;;;;;;;3.06;100.00;99927.47;5011443;28;20041;-79
2024/01/04 06:16:26;;;;;;;0.95;0.80;;;;;;;3.05;100.00;99934.41;5033432;28;20041;-79
2024/01/04 06:18:54;;;;;;;0.85;0.60;;;;;;;3.06;100.00;99930.09;5045045;28;20052;-80
2024/01/04 06:21:22;;;;;;;3.15;0.60;;;;;;;3.04;100.00;99935.25;5040323;28;20052;-79
2024/01/04 06:23:50;;;;;;;3.50;0.75;;;;;;;3.04;100.00;99945.66;5047231;28;20045;-81
2024/01/04 06:26:23;;;;;;;3.85;1.77;;;;;;;3.04;100.00;99948.25;5036608;28;20492;-80
2024/01/04 06:28:51;;;;;;;3.05;1.00;;;;;;;3.03;100.00;99951.72;5013988;28;20055;-80
2024/01/04 06:31:18;;;;;;;1.10;0.55;;;;;;;3.01;100.00;99966.44;5019980;28;20045;-79
2024/01/04 06:33:47;;;;;;;4.75;0.80;;;;;;;2.99;100.00;99962.06;5046380;28;20057;-80
2024/01/04 06:36:15;;;;;;;0.82;0.50;;;;;;;2.97;100.00;99969.84;5044430;28;20048;-80
2024/01/04 06:38:43;;;;;;;3.72;0.60;;;;;;;2.94;100.00;99969.75;5046662;28;20052;-80
2024/01/04 06:41:12;;;;;;;2.05;1.08;;;;;;;2.93;100.00;99976.72;5037020;28;20061;-80
2024/01/04 06:43:39;;;;;;;3.42;1.00;;;;;;;2.92;100.00;99987.94;5048192;28;20048;-79
2024/01/04 06:46:07;;;;;;;3.92;0.90;;;;;;;2.91;100.00;99993.13;5016588;28;20052;-79
2024/01/04 06:48:38;;;;;;;2.75;0.60;;;;;;;2.90;100.00;99991.38;5049623;28;20052;-79
2024/01/04 06:51:05;;;;;;;2.30;0.80;;;;;;;2.90;100.00;99993.97;5046456;28;20049;-80
2024/01/04 06:53:33;;;;;;;2.67;1.23;;;;;;;2.87;100.00;100002.63;5050824;28;20044;-79
2024/01/04 06:56:01;;;;;;;1.42;0.75;;;;;;;2.85;100.00;100006.88;5037883;28;20053;-80
2024/01/04 06:58:28;;;;;;;1.35;0.70;;;;;;;2.84;100.00;100019.88;5050240;28;20056;-79
2024/01/04 07:00:57;;;;;;;4.03;1.15;;;;;;;2.81;100.00;100027.63;5015138;28;20056;-80
2024/01/04 07:03:25;;;;;;;0.77;0.60;;;;;;;2.78;100.00;100036.25;5071499;28;20521;-79
2024/01/04 07:05:52;;;;;;;2.92;1.10;;;;;;;2.75;100.00;100036.16;5037157;28;20505;-80
2024/01/04 07:08:20;;;;;;;4.00;1.00;;;;;;;2.72;100.00;100037.00;5051724;28;20067;-80
2024/01/04 07:10:48;;;;;;;7.50;1.00;;;;;;;2.69;100.00;100039.50;5027739;28;20049;-80
2024/01/04 07:13:15;;;;;;;2.88;0.80;;;;;;;2.66;100.00;100041.16;5027846;28;20045;-79
2024/01/04 07:15:43;;;;;;;2.80;0.80;;;;;;;2.62;100.00;100045.41;5015697;28;20044;-79
2024/01/04 07:18:10;;;;;;;0.82;0.60;;;;;;;2.60;100.00;100046.22;5042817;28;20057;-79
2024/01/04 07:20:41;;;;;;;4.43;1.00;;;;;;;2.57;100.00;100047.06;5033922;28;20041;-79
2024/01/04 07:23:08;;;;;;;4.35;0.77;;;;;;;2.54;100.00;100053.03;5039772;28;20553;-79
2024/01/04 07:25:36;;;;;;;3.53;0.85;;;;;;;2.52;100.00;100056.47;5030317;28;20509;-79
2024/01/04 07:28:03;;;;;;;1.98;0.90;;;;;;;2.48;100.00;100067.66;5032462;28;20044;-80
2024/01/04 07:30:31;;;;;;;1.40;0.80;;;;;;;2.45;100.00;100071.03;5049601;28;20052;-78
2024/01/04 07:32:59;;;;;;;0.60;0.60;;;;;;;2.43;100.00;100077.06;5019820;28;20818;-79
2024/01/04 07:35:31;;;;;;;3.53;0.85;;;;;;;2.41;100.00;100086.53;5039518;28;20521;-78
2024/01/04 07:37:59;;;;;;;2.08;0.90;;;;;;;2.39;100.00;100088.22;5064545;28;20056;-79
2024/01/04 07:40:26;;;;;;;0.70;0.70;;;;;;;2.38;100.00;100096.84;5059894;28;20055;-79
2024/01/04 07:42:54;;;;;;;2.22;1.10;;;;;;;2.37;100.00;100113.31;5033834;28;20049;-79
2024/01/04 07:45:21;;;;;;;1.83;0.85;;;;;;;2.35;100.00;100102.88;5039083;28;20049;-79
2024/01/04 07:47:49;;;;;;;4.60;0.90;;;;;;;2.34;100.00;100112.41;5029720;28;20413;-79
2024/01/04 07:50:16;;;;;;;6.20;2.55;;;;;;;2.35;100.00;100128.88;5047947;28;20049;-79
2024/01/04 07:52:44;;;;;;;6.88;1.30;;;;;;;2.32;100.00;100121.00;5028517;28;20045;-78
2024/01/04 07:55:11;;;;;;;4.10;0.95;;;;;;;2.30;100.00;100136.53;5047226;28;20041;-78
2024/01/04 07:57:39;;;;;;;2.80;1.10;;;;;;;2.28;100.00;100137.34;5043307;28;20453;-78
2024/01/04 08:00:08;;;;;;;2.92;1.02;;;;;;;2.25;100.00;100142.47;5038741;28;20469;-79
2024/01/04 08:02:39;;;;;;;1.95;0.88;;;;;;;2.24;100.00;100143.31;5037552;28;20049;-79
2024/01/04 08:05:10;;;;;;;2.90;1.45;;;;;;;2.23;100.00;100146.75;5019415;28;20128;-78
2024/01/04 08:07:38;;;;;;;4.22;0.90;;;;;;;2.21;100.00;100151.94;5038285;28;20633;-78
2024/01/04 08:10:08;;;;;;;7.18;1.10;;;;;;;2.20;100.00;100155.34;5040825;28;20097;-79
2024/01/04 08:12:39;;;;;;;2.78;0.80;;;;;;;2.17;100.00;100154.41;5022054;28;20068;-79
2024/01/04 08:15:08;;;;;;;4.10;1.00;;;;;;;2.14;100.00;100155.22;4996388;28;20052;-78
2024/01/04 08:17:36;;;;;;;2.08;0.77;;;;;;;2.13;100.00;100151.72;5028246;28;20053;-79
2024/01/04 08:20:05;;;;;;;3.13;0.85;;;;;;;2.13;100.00;100162.09;4994138;28;20052;-78
2024/01/04 08:22:32;;;;;;;1.15;1.05;;;;;;;2.13;100.00;100164.69;4979387;28;20053;-78
2024/01/04 08:25:00;;;;;;;2.60;0.82;;;;;;;2.11;100.00;100160.31;5007657;28;20049;-80
2024/01/04 08:27:28;;;;;;;7.20;1.15;;;;;;;2.13;100.00;100159.50;5027412;28;20071;-79
2024/01/04 08:29:55;;;;;;;2.35;0.90;;;;;;;2.14;100.00;100163.88;5021439;28;20054;-79
2024/01/04 08:32:22;;;;;;;2.53;0.90;;;;;;;2.15;100.00;100172.53;5023248;28;20049;-79
2024/01/04 08:34:50;;;;;;;1.38;0.80;;;;;;;2.14;100.00;100176.00;5001683;28;20495;-80
2024/01/04 08:37:18;;;;;;;1.77;1.17;;;;;;;2.13;100.00;100175.09;5014895;28;20952;-80
2024/01/04 08:39:46;;;;;;;3.92;1.25;;;;;;;2.12;100.00;100178.56;5011128;28;20446;-81
2024/01/04 08:42:14;;;;;;;2.72;1.65;;;;;;;2.13;100.00;100187.22;5044152;28;20057;-81
2024/01/04 08:44:46;;;;;;;1.48;1.38;;;;;;;2.15;100.00;100198.53;5045081;28;20040;-80
2024/01/04 08:47:14;;;;;;;4.30;2.15;;;;;;;2.19;100.00;100196.91;5045453;28;20045;-79
2024/01/04 08:49:41;;;;;;;3.60;2.25;;;;;;;2.26;100.00;100202.31;5043635;28;20033;-80
2024/01/04 08:52:09;;;;;;;2.15;1.95;;;;;;;2.31;100.00;100200.72;5017828;28;20088;-79
2024/01/04 08:54:36;;;;;;;4.07;2.42;;;;;;;2.40;100.00;100207.88;5036745;28;20683;-80
2024/01/04 08:57:06;;;;;;;4.38;1.40;;;;;;;2.47;100.00;100208.91;5026964;28;20553;-80
2024/01/04 08:59:37;;;;;;;1.25;1.05;;;;;;;2.52;100.00;100208.19;5028314;28;20048;-80
2024/01/04 09:02:05;;;;;;;3.47;1.10;;;;;;;2.58;100.00;100217.88;5038265;28;20053;-80
2024/01/04 09:04:34;;;;;;;1.83;1.00;;;;;;;2.60;100.00;100220.50;5044646;28;20057;-80
2024/01/04 09:07:02;;;;;;;2.78;1.10;;;;;;;2.64;100.00;100214.53;5001385;28;20060;-80
2024/01/04 09:09:30;;;;;;;2.72;1.08;;;;;;;2.68;100.00;100219.84;5040460;28;20048;-79
2024/01/04 09:11:57;;;;;;;2.20;1.05;;;;;;;2.70;100.00;100222.50;5041752;28;20053;-79
2024/01/04 09:14:25;;;;;;;1.30;0.80;;;;;;;2.70;100.00;100233.81;5040458;28;20053;-80
2024/01/04 09:16:52;;;;;;;3.08;0.95;;;;;;;2.71;100.00;100240.75;5041822;28;20053;-79
2024/01/04 09:19:20;;;;;;;3.65;1.02;;;;;;;2.73;100.00;100241.66;5041237;28;20049;-80
2024/01/04 09:21:50;;;;;;;3.38;0.82;;;;;;;2.73;100.00;100248.59;5012171;28;22278;-79
2024/01/04 09:24:20;;;;;;;3.92;1.00;;;;;;;2.75;100.00;100253.84;5033888;28;20057;-80
2024/01/04 09:26:47;;;;;;;1.48;0.90;;;;;;;2.76;100.00;100255.59;5034658;28;20045;-79
2024/01/04 09:29:17;;;;;;;3.08;1.38;;;;;;;2.78;100.00;100264.31;5046009;28;20067;-80
2024/01/04 09:31:44;;;;;;;2.88;1.10;;;;;;;2.80;100.00;100257.41;5026311;28;20040;-80
2024/01/04 09:34:13;;;;;;;1.23;0.80;;;;;;;2.86;100.00;100266.28;5045754;28;20056;-79
2024/01/04 09:36:40;;;;;;;3.50;1.30;;;;;;;2.92;100.00;100273.34;5026561;28;20045;-80
2024/01/04 09:39:08;;;;;;;3.45;1.05;;;;;;;2.98;100.00;100277.84;5035111;28;20052;-79
2024/01/04 09:41:44;;;;;;;2.40;0.80;;;;;;;3.03;100.00;100277.09;5039065;28;20070;-80
2024/01/04 09:44:13;;;;;;;2.05;0.80;;;;;;;3.09;100.00;100277.25;5046230;28;20053;-80
2024/01/04 09:46:42;;;;;;;0.98;0.70;;;;;;;3.14;100.00;100282.59;5047514;28;20052;-80
2024/01/04 09:49:11;;;;;;;4.72;1.23;;;;;;;3.21;100.00;100291.41;5044451;28;20052;-79
2024/01/04 09:51:41;;;;;;;3.80;0.93;;;;;;;3.28;100.00;100308.94;5006490;28;20042;-80
2024/01/04 09:54:10;;;;;;;3.72;0.98;;;;;;;3.36;100.00;100309.13;5002074;28;20101;-81
2024/01/04 09:56:50;;;;;;;5.25;1.73;;;;;;;3.43;100.00;100308.44;5027943;28;20049;-80
2024/01/04 09:59:18;;;;;;;2.38;0.90;;;;;;;3.50;100.00;100308.59;5037469;28;20044;-80
2024/01/04 10:01:47;;;;;;;3.70;1.20;;;;;;;3.59;100.00;100313.16;5010925;28;20410;-80
2024/01/04 10:04:16;;;;;;;2.63;0.95;;;;;;;3.65;100.00;100315.91;5017905;28;20049;-80
2024/01/04 10:06:45;;;;;;;1.75;0.68;;;;;;;3.64;100.00;100328.88;5035928;28;20052;-80
2024/01/04 10:09:28;;;;;;;2.15;0.70;;;;;;;3.64;100.00;100324.53;5019171;28;20049;-80
2024/01/04 10:12:08;;;;;;;0.93;0.80;;;;;;;3.64;100.00;100329.75;5038843;28;20053;-80
2024/01/04 10:14:36;;;;;;;3.50;0.90;;;;;;;3.66;100.00;100328.06;5068886;28;20057;-82
2024/01/04 10:17:04;;;;;;;2.28;0.63;;;;;;;3.67;100.00;100335.06;5037881;28;20056;-82
2024/01/04 10:19:32;;;;;;;2.45;0.60;;;;;;;3.69;100.00;100337.69;5037799;28;20041;-81
2024/01/04 10:22:02;;;;;;;1.73;0.88;;;;;;;3.70;100.00;100331.63;5040572;28;20049;-81
2024/01/04 10:24:35;;;;;;;3.90;2.13;;;;;;;3.72;100.00;100332.53;4985464;28;20057;-81
2024/01/04 10:27:08;;;;;;;0.68;0.60;;;;;;;3.74;100.00;100333.44;5041645;28;20048;-80
2024/01/04 10:29:37;;;;;;;0.98;0.63;;;;;;;3.77;100.00;100338.75;5045206;28;20537;-80
2024/01/04 10:32:10;;;;;;;0.98;0.80;;;;;;;3.81;100.00;100342.31;5037598;28;20390;-79
2024/01/04 10:34:38;;;;;;;2.22;0.68;;;;;;;3.84;100.00;100345.88;5040684;28;20085;-81
2024/01/04 10:37:22;;;;;;;1.90;0.80;;;;;;;3.88;100.00;100349.41;5038621;28;20049;-80
2024/01/04 10:39:58;;;;;;;0.75;0.55;;;;;;;3.91;100.00;100344.25;5038620;28;20068;-82
2024/01/04 10:42:26;;;;;;;1.88;0.80;;;;;;;3.96;100.00;100342.63;5034427;28;20044;-80
2024/01/04 10:44:55;;;;;;;1.65;1.02;;;;;;;4.05;100.00;100353.28;5046586;28;20037;-81
2024/01/04 10:47:23;;;;;;;3.92;0.57;;;;;;;4.12;100.00;100354.31;5030943;28;20848;-82
2024/01/04 10:49:59;;;;;;;0.70;0.60;;;;;;;4.17;100.00;100368.28;5017541;28;20041;-81
2024/01/04 10:52:30;;;;;;;2.25;1.00;;;;;;;4.16;100.00;100358.72;5046645;28;20052;-82
2024/01/04 10:55:02;;;;;;;4.13;0.60;;;;;;;4.00;100.00;100367.06;5039409;28;20052;-82
2024/01/04 10:57:32;;;;;;;0.98;0.85;;;;;;;3.88;100.00;100354.63;4988555;28;20041;-82
2024/01/04 11:00:02;;;;;;;2.40;0.90;;;;;;;3.78;100.00;100361.38;5057717;28;20049;-82
2024/01/04 11:02:33;;;;;;;1.67;0.73;;;;;;;3.71;100.00;100362.06;5032017;28;20084;-82
2024/01/04 11:05:03;;;;;;;2.30;0.90;;;;;;;3.68;100.00;100367.19;5010398;28;20067;-82
2024/01/04 11:07:31;;;;;;;1.05;0.70;;;;;;;3.68;100.00;100365.47;5039752;28;20608;-82
2024/01/04 11:09:59;;;;;;;2.17;0.77;;;;;;;3.72;100.00;100366.41;5042123;28;20060;-82
2024/01/04 11:12:29;;;;;;;2.85;0.85;;;;;;;3.71;100.00;100370.75;5019324;28;20055;-83
2024/01/04 11:14:58;;;;;;;1.40;0.95;;;;;;;3.65;100.00;100368.00;5045461;28;20053;-82
2024/01/04 11:17:54;;;;;;;2.60;0.80;;;;;;;3.62;100.00;100373.16;5047096;28;20032;-82
2024/01/04 11:20:35;;;;;;;3.40;1.00;;;;;;;3.74;100.00;100366.47;5036092;28;20111;-83
2024/01/04 11:23:36;;;;;;;1.17;0.90;;;;;;;3.80;100.00;100367.50;5041565;28;20049;-82
2024/01/04 11:26:24;;;;;;;2.42;0.90;;;;;;;3.80;100.00;100362.28;5041026;28;20048;-81
2024/01/04 11:28:56;;;;;;;2.08;0.63;;;;;;;3.79;100.00;100373.53;5018998;28;20387;-81
2024/01/04 11:31:24;;;;;;;2.35;1.00;;;;;;;3.78;100.00;100378.72;5045667;28;20052;-81
2024/01/04 11:33:52;;;;;;;0.95;0.82;;;;;;;3.76;100.00;100380.41;5043171;28;20413;-81
2024/01/04 11:36:20;;;;;;;3.50;0.90;;;;;;;3.69;100.00;100380.25;5031426;28;20418;-82